sensor_id;sensor_type;location;lat;lon;timestamp;P1;durP1;ratioP1;P2;durP2;ratioP2
51286;SDS011;37364;46.974;18.916;2023-02-18T00:02:26;37.03;;;25.20;;
51286;SDS011;37364;46.974;18.916;2023-02-18T00:04:57;33.67;;;24.67;;
51286;SDS011;37364;46.974;18.916;2023-02-18T00:07:28;33.85;;;26.35;;
51286;SDS011;37364;46.974;18.916;2023-02-18T00:10:05;38.90;;;27.85;;
51286;SDS011;37364;46.974;18.916;2023-02-18T00:15:12;37.75;;;26.60;;
51286;SDS011;37364;46.974;18.916;2023-02-18T00:17:43;35.47;;;25.45;;
51286;SDS011;37364;46.974;18.916;2023-02-18T00:20:14;40.63;;;27.00;;
51286;SDS011;37364;46.974;18.916;2023-02-18T00:22:44;34.78;;;25.83;;
51286;SDS011;37364;46.974;18.916;2023-02-18T00:25:15;40.00;;;28.20;;
51286;SDS011;37364;46.974;18.916;2023-02-18T00:27:48;43.40;;;27.73;;
51286;SDS011;37364;46.974;18.916;2023-02-18T00:30:19;40.78;;;27.23;;
51286;SDS011;37364;46.974;18.916;2023-02-18T00:32:50;42.55;;;28.60;;
51286;SDS011;37364;46.974;18.916;2023-02-18T00:35:21;41.97;;;28.42;;
51286;SDS011;37364;46.974;18.916;2023-02-18T00:37:51;45.42;;;30.02;;
51286;SDS011;37364;46.974;18.916;2023-02-18T00:40:22;40.00;;;28.48;;
51286;SDS011;37364;46.974;18.916;2023-02-18T00:42:55;45.10;;;29.33;;
51286;SDS011;37364;46.974;18.916;2023-02-18T00:45:26;43.20;;;29.13;;
51286;SDS011;37364;46.974;18.916;2023-02-18T00:47:57;43.15;;;29.15;;
51286;SDS011;37364;46.974;18.916;2023-02-18T00:50:28;45.50;;;30.67;;
51286;SDS011;37364;46.974;18.916;2023-02-18T00:52:58;39.15;;;28.02;;
51286;SDS011;37364;46.974;18.916;2023-02-18T00:55:29;44.45;;;29.17;;
51286;SDS011;37364;46.974;18.916;2023-02-18T00:58:02;42.22;;;29.58;;
51286;SDS011;37364;46.974;18.916;2023-02-18T01:00:33;45.08;;;30.25;;
51286;SDS011;37364;46.974;18.916;2023-02-18T01:03:06;43.55;;;31.52;;
51286;SDS011;37364;46.974;18.916;2023-02-18T01:05:38;46.60;;;32.40;;
51286;SDS011;37364;46.974;18.916;2023-02-18T01:08:09;44.72;;;32.72;;
51286;SDS011;37364;46.974;18.916;2023-02-18T01:10:41;47.83;;;32.78;;
51286;SDS011;37364;46.974;18.916;2023-02-18T01:13:16;50.25;;;34.25;;
51286;SDS011;37364;46.974;18.916;2023-02-18T01:15:47;52.65;;;34.55;;
51286;SDS011;37364;46.974;18.916;2023-02-18T01:18:18;51.60;;;33.97;;
51286;SDS011;37364;46.974;18.916;2023-02-18T01:20:49;51.88;;;36.40;;
51286;SDS011;37364;46.974;18.916;2023-02-18T01:23:19;49.30;;;34.15;;
51286;SDS011;37364;46.974;18.916;2023-02-18T01:25:50;53.17;;;37.35;;
51286;SDS011;37364;46.974;18.916;2023-02-18T01:28:24;61.50;;;38.97;;
51286;SDS011;37364;46.974;18.916;2023-02-18T01:30:55;52.92;;;37.42;;
51286;SDS011;37364;46.974;18.916;2023-02-18T01:33:26;51.42;;;39.10;;
51286;SDS011;37364;46.974;18.916;2023-02-18T01:35:59;55.53;;;40.35;;
51286;SDS011;37364;46.974;18.916;2023-02-18T01:38:30;65.90;;;42.38;;
51286;SDS011;37364;46.974;18.916;2023-02-18T01:41:01;66.93;;;42.72;;
51286;SDS011;37364;46.974;18.916;2023-02-18T01:43:35;68.53;;;45.40;;
51286;SDS011;37364;46.974;18.916;2023-02-18T01:46:13;69.60;;;44.42;;
51286;SDS011;37364;46.974;18.916;2023-02-18T01:48:47;71.47;;;45.75;;
51286;SDS011;37364;46.974;18.916;2023-02-18T01:51:21;66.65;;;44.78;;
51286;SDS011;37364;46.974;18.916;2023-02-18T01:53:56;64.30;;;44.65;;
51286;SDS011;37364;46.974;18.916;2023-02-18T01:56:30;72.65;;;45.45;;
51286;SDS011;37364;46.974;18.916;2023-02-18T01:59:08;70.63;;;46.47;;
51286;SDS011;37364;46.974;18.916;2023-02-18T02:01:44;65.13;;;44.47;;
51286;SDS011;37364;46.974;18.916;2023-02-18T02:04:15;68.53;;;44.90;;
51286;SDS011;37364;46.974;18.916;2023-02-18T02:06:46;69.70;;;44.05;;
51286;SDS011;37364;46.974;18.916;2023-02-18T02:09:17;76.65;;;45.67;;
51286;SDS011;37364;46.974;18.916;2023-02-18T02:12:11;73.30;;;48.03;;
51286;SDS011;37364;46.974;18.916;2023-02-18T02:15:13;77.82;;;47.03;;
51286;SDS011;37364;46.974;18.916;2023-02-18T02:18:13;70.28;;;46.03;;
51286;SDS011;37364;46.974;18.916;2023-02-18T02:27:03;72.65;;;47.55;;
51286;SDS011;37364;46.974;18.916;2023-02-18T02:35:56;85.28;;;52.70;;
51286;SDS011;37364;46.974;18.916;2023-02-18T02:38:33;74.50;;;49.58;;
51286;SDS011;37364;46.974;18.916;2023-02-18T02:41:12;84.53;;;53.63;;
51286;SDS011;37364;46.974;18.916;2023-02-18T02:43:52;80.35;;;53.13;;
51286;SDS011;37364;46.974;18.916;2023-02-18T02:46:34;85.38;;;57.33;;
51286;SDS011;37364;46.974;18.916;2023-02-18T02:49:12;83.82;;;53.35;;
51286;SDS011;37364;46.974;18.916;2023-02-18T02:51:58;89.43;;;52.13;;
51286;SDS011;37364;46.974;18.916;2023-02-18T02:54:32;91.00;;;58.25;;
51286;SDS011;37364;46.974;18.916;2023-02-18T02:57:07;89.32;;;57.65;;
51286;SDS011;37364;46.974;18.916;2023-02-18T03:00:08;84.90;;;55.10;;
51286;SDS011;37364;46.974;18.916;2023-02-18T03:02:44;89.65;;;56.08;;
51286;SDS011;37364;46.974;18.916;2023-02-18T03:05:32;83.25;;;55.25;;
51286;SDS011;37364;46.974;18.916;2023-02-18T03:08:22;94.25;;;57.70;;
51286;SDS011;37364;46.974;18.916;2023-02-18T03:11:04;93.40;;;57.03;;
51286;SDS011;37364;46.974;18.916;2023-02-18T03:13:50;91.72;;;59.17;;
51286;SDS011;37364;46.974;18.916;2023-02-18T03:16:34;91.70;;;55.63;;
51286;SDS011;37364;46.974;18.916;2023-02-18T03:19:10;93.78;;;57.53;;
51286;SDS011;37364;46.974;18.916;2023-02-18T03:21:49;93.90;;;58.72;;
51286;SDS011;37364;46.974;18.916;2023-02-18T03:24:25;85.18;;;56.15;;
51286;SDS011;37364;46.974;18.916;2023-02-18T03:27:03;98.10;;;59.25;;
51286;SDS011;37364;46.974;18.916;2023-02-18T03:29:36;91.72;;;60.42;;
51286;SDS011;37364;46.974;18.916;2023-02-18T03:32:08;90.45;;;54.58;;
51286;SDS011;37364;46.974;18.916;2023-02-18T03:34:45;88.10;;;58.47;;
51286;SDS011;37364;46.974;18.916;2023-02-18T03:37:19;88.32;;;60.00;;
51286;SDS011;37364;46.974;18.916;2023-02-18T03:39:54;88.05;;;59.40;;
51286;SDS011;37364;46.974;18.916;2023-02-18T03:42:29;103.75;;;61.75;;
51286;SDS011;37364;46.974;18.916;2023-02-18T03:45:00;90.47;;;58.22;;
51286;SDS011;37364;46.974;18.916;2023-02-18T03:47:30;88.68;;;59.65;;
51286;SDS011;37364;46.974;18.916;2023-02-18T03:50:01;95.60;;;60.40;;
51286;SDS011;37364;46.974;18.916;2023-02-18T03:52:33;94.82;;;60.38;;
51286;SDS011;37364;46.974;18.916;2023-02-18T03:55:08;92.18;;;56.90;;
51286;SDS011;37364;46.974;18.916;2023-02-18T03:57:39;95.18;;;60.38;;
51286;SDS011;37364;46.974;18.916;2023-02-18T04:00:10;92.38;;;58.45;;
51286;SDS011;37364;46.974;18.916;2023-02-18T04:02:41;89.22;;;60.03;;
51286;SDS011;37364;46.974;18.916;2023-02-18T04:05:12;96.45;;;59.22;;
51286;SDS011;37364;46.974;18.916;2023-02-18T04:07:42;98.57;;;61.22;;
51286;SDS011;37364;46.974;18.916;2023-02-18T04:10:16;92.50;;;59.00;;
51286;SDS011;37364;46.974;18.916;2023-02-18T04:12:48;94.40;;;61.92;;
51286;SDS011;37364;46.974;18.916;2023-02-18T04:15:18;98.88;;;61.97;;
51286;SDS011;37364;46.974;18.916;2023-02-18T04:17:49;95.63;;;63.00;;
51286;SDS011;37364;46.974;18.916;2023-02-18T04:20:23;96.97;;;62.75;;
51286;SDS011;37364;46.974;18.916;2023-02-18T04:22:53;104.93;;;61.72;;
51286;SDS011;37364;46.974;18.916;2023-02-18T04:25:27;96.97;;;63.28;;
51286;SDS011;37364;46.974;18.916;2023-02-18T04:27:57;96.72;;;60.92;;
51286;SDS011;37364;46.974;18.916;2023-02-18T04:30:28;99.45;;;63.33;;
51286;SDS011;37364;46.974;18.916;2023-02-18T04:33:01;94.90;;;61.75;;
51286;SDS011;37364;46.974;18.916;2023-02-18T04:35:32;94.75;;;63.10;;
51286;SDS011;37364;46.974;18.916;2023-02-18T04:38:02;92.25;;;59.33;;
51286;SDS011;37364;46.974;18.916;2023-02-18T04:40:35;101.32;;;61.00;;
51286;SDS011;37364;46.974;18.916;2023-02-18T04:43:06;99.30;;;60.55;;
51286;SDS011;37364;46.974;18.916;2023-02-18T04:45:37;90.80;;;62.60;;
51286;SDS011;37364;46.974;18.916;2023-02-18T04:48:08;95.97;;;61.80;;
51286;SDS011;37364;46.974;18.916;2023-02-18T04:50:38;92.88;;;59.45;;
51286;SDS011;37364;46.974;18.916;2023-02-18T04:53:09;95.45;;;61.95;;
51286;SDS011;37364;46.974;18.916;2023-02-18T04:55:42;94.00;;;62.40;;
51286;SDS011;37364;46.974;18.916;2023-02-18T04:58:17;98.95;;;61.80;;
51286;SDS011;37364;46.974;18.916;2023-02-18T05:00:49;97.43;;;60.33;;
51286;SDS011;37364;46.974;18.916;2023-02-18T05:03:20;93.38;;;60.25;;
51286;SDS011;37364;46.974;18.916;2023-02-18T05:05:50;103.93;;;61.85;;
51286;SDS011;37364;46.974;18.916;2023-02-18T05:08:21;104.20;;;62.20;;
51286;SDS011;37364;46.974;18.916;2023-02-18T05:10:55;100.20;;;61.63;;
51286;SDS011;37364;46.974;18.916;2023-02-18T05:13:25;95.32;;;60.60;;
51286;SDS011;37364;46.974;18.916;2023-02-18T05:15:56;106.47;;;60.97;;
51286;SDS011;37364;46.974;18.916;2023-02-18T05:18:27;105.68;;;59.88;;
51286;SDS011;37364;46.974;18.916;2023-02-18T05:20:57;97.40;;;59.83;;
51286;SDS011;37364;46.974;18.916;2023-02-18T05:23:27;97.70;;;54.75;;
51286;SDS011;37364;46.974;18.916;2023-02-18T05:26:01;95.80;;;59.95;;
51286;SDS011;37364;46.974;18.916;2023-02-18T05:28:32;105.95;;;63.53;;
51286;SDS011;37364;46.974;18.916;2023-02-18T05:31:03;97.47;;;59.70;;
51286;SDS011;37364;46.974;18.916;2023-02-18T05:33:34;95.05;;;59.50;;
51286;SDS011;37364;46.974;18.916;2023-02-18T05:36:05;96.90;;;61.33;;
51286;SDS011;37364;46.974;18.916;2023-02-18T05:38:36;95.82;;;57.60;;
51286;SDS011;37364;46.974;18.916;2023-02-18T05:41:10;100.38;;;58.53;;
51286;SDS011;37364;46.974;18.916;2023-02-18T05:43:40;111.88;;;62.53;;
51286;SDS011;37364;46.974;18.916;2023-02-18T05:46:23;91.05;;;60.75;;
51286;SDS011;37364;46.974;18.916;2023-02-18T05:48:54;98.22;;;61.28;;
51286;SDS011;37364;46.974;18.916;2023-02-18T05:51:25;101.30;;;60.72;;
51286;SDS011;37364;46.974;18.916;2023-02-18T05:53:55;101.65;;;63.25;;
51286;SDS011;37364;46.974;18.916;2023-02-18T05:56:29;103.03;;;61.45;;
51286;SDS011;37364;46.974;18.916;2023-02-18T05:59:00;81.97;;;54.78;;
51286;SDS011;37364;46.974;18.916;2023-02-18T06:01:30;93.95;;;58.63;;
51286;SDS011;37364;46.974;18.916;2023-02-18T06:04:01;92.68;;;58.90;;
51286;SDS011;37364;46.974;18.916;2023-02-18T06:06:31;97.43;;;58.13;;
51286;SDS011;37364;46.974;18.916;2023-02-18T06:09:02;92.93;;;60.10;;
51286;SDS011;37364;46.974;18.916;2023-02-18T06:11:36;91.28;;;55.40;;
51286;SDS011;37364;46.974;18.916;2023-02-18T06:14:07;100.95;;;59.80;;
51286;SDS011;37364;46.974;18.916;2023-02-18T06:16:37;112.15;;;62.85;;
51286;SDS011;37364;46.974;18.916;2023-02-18T06:19:08;91.82;;;59.28;;
51286;SDS011;37364;46.974;18.916;2023-02-18T06:21:38;94.60;;;59.10;;
51286;SDS011;37364;46.974;18.916;2023-02-18T06:24:09;103.13;;;60.67;;
51286;SDS011;37364;46.974;18.916;2023-02-18T06:26:42;104.10;;;64.97;;
51286;SDS011;37364;46.974;18.916;2023-02-18T06:29:13;103.00;;;63.28;;
51286;SDS011;37364;46.974;18.916;2023-02-18T06:31:43;97.82;;;61.72;;
51286;SDS011;37364;46.974;18.916;2023-02-18T06:34:14;97.75;;;61.47;;
51286;SDS011;37364;46.974;18.916;2023-02-18T06:36:44;100.68;;;63.78;;
51286;SDS011;37364;46.974;18.916;2023-02-18T06:39:15;92.53;;;60.67;;
51286;SDS011;37364;46.974;18.916;2023-02-18T06:41:48;115.55;;;60.40;;
51286;SDS011;37364;46.974;18.916;2023-02-18T06:44:19;93.63;;;58.20;;
51286;SDS011;37364;46.974;18.916;2023-02-18T06:46:49;95.72;;;59.13;;
51286;SDS011;37364;46.974;18.916;2023-02-18T06:49:20;83.25;;;53.97;;
51286;SDS011;37364;46.974;18.916;2023-02-18T06:51:50;87.63;;;55.30;;
51286;SDS011;37364;46.974;18.916;2023-02-18T06:54:21;91.82;;;54.70;;
51286;SDS011;37364;46.974;18.916;2023-02-18T06:56:54;93.35;;;54.60;;
51286;SDS011;37364;46.974;18.916;2023-02-18T06:59:25;76.30;;;50.00;;
51286;SDS011;37364;46.974;18.916;2023-02-18T07:01:55;81.57;;;49.33;;
51286;SDS011;37364;46.974;18.916;2023-02-18T07:04:26;78.18;;;47.72;;
51286;SDS011;37364;46.974;18.916;2023-02-18T07:06:56;60.40;;;37.05;;
51286;SDS011;37364;46.974;18.916;2023-02-18T07:09:27;61.70;;;39.95;;
51286;SDS011;37364;46.974;18.916;2023-02-18T07:12:00;56.17;;;36.05;;
51286;SDS011;37364;46.974;18.916;2023-02-18T07:14:30;54.20;;;37.42;;
51286;SDS011;37364;46.974;18.916;2023-02-18T07:17:01;57.65;;;35.20;;
51286;SDS011;37364;46.974;18.916;2023-02-18T07:19:31;57.67;;;36.03;;
51286;SDS011;37364;46.974;18.916;2023-02-18T07:22:01;53.60;;;35.55;;
51286;SDS011;37364;46.974;18.916;2023-02-18T07:24:32;58.65;;;36.95;;
51286;SDS011;37364;46.974;18.916;2023-02-18T07:27:05;97.43;;;68.28;;
51286;SDS011;37364;46.974;18.916;2023-02-18T07:29:36;67.13;;;40.85;;
51286;SDS011;37364;46.974;18.916;2023-02-18T07:32:06;67.00;;;39.05;;
51286;SDS011;37364;46.974;18.916;2023-02-18T07:34:36;66.03;;;38.90;;
51286;SDS011;37364;46.974;18.916;2023-02-18T07:37:07;59.63;;;38.97;;
51286;SDS011;37364;46.974;18.916;2023-02-18T07:39:38;52.08;;;36.03;;
51286;SDS011;37364;46.974;18.916;2023-02-18T07:42:12;55.25;;;35.45;;
51286;SDS011;37364;46.974;18.916;2023-02-18T07:44:43;87.25;;;56.85;;
51286;SDS011;37364;46.974;18.916;2023-02-18T07:47:14;95.05;;;56.35;;
51286;SDS011;37364;46.974;18.916;2023-02-18T07:49:46;108.30;;;62.85;;
51286;SDS011;37364;46.974;18.916;2023-02-18T07:52:28;100.38;;;61.97;;
51286;SDS011;37364;46.974;18.916;2023-02-18T07:55:06;100.43;;;61.67;;
51286;SDS011;37364;46.974;18.916;2023-02-18T07:57:40;101.00;;;61.60;;
51286;SDS011;37364;46.974;18.916;2023-02-18T08:00:22;102.00;;;63.42;;
51286;SDS011;37364;46.974;18.916;2023-02-18T08:02:53;105.38;;;63.33;;
51286;SDS011;37364;46.974;18.916;2023-02-18T08:05:24;111.40;;;62.45;;
51286;SDS011;37364;46.974;18.916;2023-02-18T08:07:54;112.45;;;64.18;;
51286;SDS011;37364;46.974;18.916;2023-02-18T08:10:25;111.70;;;68.60;;
51286;SDS011;37364;46.974;18.916;2023-02-18T08:12:58;103.97;;;64.18;;
51286;SDS011;37364;46.974;18.916;2023-02-18T08:15:29;106.28;;;64.57;;
51286;SDS011;37364;46.974;18.916;2023-02-18T08:18:00;99.88;;;63.45;;
51286;SDS011;37364;46.974;18.916;2023-02-18T08:20:31;104.10;;;65.05;;
51286;SDS011;37364;46.974;18.916;2023-02-18T08:23:04;112.63;;;64.13;;
51286;SDS011;37364;46.974;18.916;2023-02-18T08:25:35;97.10;;;61.38;;
51286;SDS011;37364;46.974;18.916;2023-02-18T08:28:09;107.70;;;63.30;;
51286;SDS011;37364;46.974;18.916;2023-02-18T08:30:43;110.65;;;63.70;;
51286;SDS011;37364;46.974;18.916;2023-02-18T08:33:15;101.70;;;63.40;;
51286;SDS011;37364;46.974;18.916;2023-02-18T08:35:46;111.10;;;63.55;;
51286;SDS011;37364;46.974;18.916;2023-02-18T08:38:18;106.60;;;64.38;;
51286;SDS011;37364;46.974;18.916;2023-02-18T08:40:49;108.53;;;65.40;;
51286;SDS011;37364;46.974;18.916;2023-02-18T08:43:22;105.60;;;64.35;;
51286;SDS011;37364;46.974;18.916;2023-02-18T08:45:53;121.88;;;74.35;;
51286;SDS011;37364;46.974;18.916;2023-02-18T08:48:25;97.65;;;62.17;;
51286;SDS011;37364;46.974;18.916;2023-02-18T08:50:56;104.03;;;66.25;;
51286;SDS011;37364;46.974;18.916;2023-02-18T08:53:27;110.32;;;63.28;;
51286;SDS011;37364;46.974;18.916;2023-02-18T08:55:57;94.68;;;62.42;;
51286;SDS011;37364;46.974;18.916;2023-02-18T08:58:32;116.13;;;63.20;;
51286;SDS011;37364;46.974;18.916;2023-02-18T09:03:35;101.43;;;61.95;;
51286;SDS011;37364;46.974;18.916;2023-02-18T09:06:07;96.13;;;61.35;;
51286;SDS011;37364;46.974;18.916;2023-02-18T09:08:38;98.05;;;60.90;;
51286;SDS011;37364;46.974;18.916;2023-02-18T09:11:09;104.07;;;62.22;;
51286;SDS011;37364;46.974;18.916;2023-02-18T09:13:43;95.43;;;61.63;;
51286;SDS011;37364;46.974;18.916;2023-02-18T09:16:14;101.70;;;59.20;;
51286;SDS011;37364;46.974;18.916;2023-02-18T09:18:47;92.50;;;58.53;;
51286;SDS011;37364;46.974;18.916;2023-02-18T09:21:18;88.43;;;58.25;;
51286;SDS011;37364;46.974;18.916;2023-02-18T09:23:49;93.18;;;59.45;;
51286;SDS011;37364;46.974;18.916;2023-02-18T09:26:20;88.90;;;58.45;;
51286;SDS011;37364;46.974;18.916;2023-02-18T09:28:55;89.57;;;57.83;;
51286;SDS011;37364;46.974;18.916;2023-02-18T09:31:26;97.22;;;62.08;;
51286;SDS011;37364;46.974;18.916;2023-02-18T09:33:58;107.40;;;68.22;;
51286;SDS011;37364;46.974;18.916;2023-02-18T09:36:30;128.00;;;75.28;;
51286;SDS011;37364;46.974;18.916;2023-02-18T09:39:02;110.13;;;69.80;;
51286;SDS011;37364;46.974;18.916;2023-02-18T09:41:34;104.88;;;65.47;;
51286;SDS011;37364;46.974;18.916;2023-02-18T09:44:12;106.57;;;64.93;;
51286;SDS011;37364;46.974;18.916;2023-02-18T09:46:48;99.55;;;61.22;;
51286;SDS011;37364;46.974;18.916;2023-02-18T09:49:21;98.80;;;57.80;;
51286;SDS011;37364;46.974;18.916;2023-02-18T09:51:55;91.32;;;58.75;;
51286;SDS011;37364;46.974;18.916;2023-02-18T09:54:31;83.20;;;54.53;;
51286;SDS011;37364;46.974;18.916;2023-02-18T09:57:02;97.75;;;57.28;;
51286;SDS011;37364;46.974;18.916;2023-02-18T09:59:37;90.57;;;54.35;;
51286;SDS011;37364;46.974;18.916;2023-02-18T10:04:42;101.15;;;63.80;;
51286;SDS011;37364;46.974;18.916;2023-02-18T10:07:18;73.07;;;48.95;;
51286;SDS011;37364;46.974;18.916;2023-02-18T10:09:54;83.85;;;51.95;;
51286;SDS011;37364;46.974;18.916;2023-02-18T10:12:26;78.53;;;49.97;;
51286;SDS011;37364;46.974;18.916;2023-02-18T10:15:06;83.82;;;50.88;;
51286;SDS011;37364;46.974;18.916;2023-02-18T10:17:47;85.65;;;50.70;;
51286;SDS011;37364;46.974;18.916;2023-02-18T10:20:22;76.05;;;54.38;;
51286;SDS011;37364;46.974;18.916;2023-02-18T10:22:54;85.22;;;56.83;;
51286;SDS011;37364;46.974;18.916;2023-02-18T10:25:31;89.88;;;51.63;;
51286;SDS011;37364;46.974;18.916;2023-02-18T10:28:10;74.30;;;47.35;;
51286;SDS011;37364;46.974;18.916;2023-02-18T10:30:46;104.53;;;67.20;;
51286;SDS011;37364;46.974;18.916;2023-02-18T10:33:26;197.48;;;120.40;;
51286;SDS011;37364;46.974;18.916;2023-02-18T10:36:14;90.85;;;56.95;;
51286;SDS011;37364;46.974;18.916;2023-02-18T10:44:50;92.40;;;57.28;;
51286;SDS011;37364;46.974;18.916;2023-02-18T10:47:33;99.93;;;64.25;;
51286;SDS011;37364;46.974;18.916;2023-02-18T10:50:09;85.10;;;52.78;;
51286;SDS011;37364;46.974;18.916;2023-02-18T10:52:42;126.07;;;72.25;;
51286;SDS011;37364;46.974;18.916;2023-02-18T10:55:15;76.65;;;49.72;;
51286;SDS011;37364;46.974;18.916;2023-02-18T10:57:49;93.57;;;53.28;;
51286;SDS011;37364;46.974;18.916;2023-02-18T11:00:22;73.90;;;49.17;;
51286;SDS011;37364;46.974;18.916;2023-02-18T11:03:08;77.72;;;52.65;;
51286;SDS011;37364;46.974;18.916;2023-02-18T11:05:44;93.80;;;61.58;;
51286;SDS011;37364;46.974;18.916;2023-02-18T11:08:17;88.15;;;56.20;;
51286;SDS011;37364;46.974;18.916;2023-02-18T11:10:51;79.97;;;50.83;;
51286;SDS011;37364;46.974;18.916;2023-02-18T11:13:24;81.53;;;54.45;;
51286;SDS011;37364;46.974;18.916;2023-02-18T11:15:59;76.60;;;49.33;;
51286;SDS011;37364;46.974;18.916;2023-02-18T11:18:41;80.47;;;50.22;;
51286;SDS011;37364;46.974;18.916;2023-02-18T11:21:25;76.72;;;50.28;;
51286;SDS011;37364;46.974;18.916;2023-02-18T11:24:05;78.18;;;50.08;;
51286;SDS011;37364;46.974;18.916;2023-02-18T11:26:37;72.45;;;49.15;;
51286;SDS011;37364;46.974;18.916;2023-02-18T11:29:13;79.78;;;50.75;;
51286;SDS011;37364;46.974;18.916;2023-02-18T11:31:51;73.78;;;48.53;;
51286;SDS011;37364;46.974;18.916;2023-02-18T11:34:27;77.65;;;49.67;;
51286;SDS011;37364;46.974;18.916;2023-02-18T11:37:07;92.18;;;63.08;;
51286;SDS011;37364;46.974;18.916;2023-02-18T11:39:41;79.63;;;50.75;;
51286;SDS011;37364;46.974;18.916;2023-02-18T11:42:14;86.15;;;55.70;;
51286;SDS011;37364;46.974;18.916;2023-02-18T11:44:48;89.55;;;57.63;;
51286;SDS011;37364;46.974;18.916;2023-02-18T11:47:23;89.38;;;58.58;;
51286;SDS011;37364;46.974;18.916;2023-02-18T11:50:13;158.77;;;108.30;;
51286;SDS011;37364;46.974;18.916;2023-02-18T11:52:50;89.15;;;57.88;;
51286;SDS011;37364;46.974;18.916;2023-02-18T11:55:24;101.70;;;68.25;;
51286;SDS011;37364;46.974;18.916;2023-02-18T11:57:57;140.88;;;89.90;;
51286;SDS011;37364;46.974;18.916;2023-02-18T12:00:38;126.28;;;85.63;;
51286;SDS011;37364;46.974;18.916;2023-02-18T12:03:13;84.57;;;53.72;;
51286;SDS011;37364;46.974;18.916;2023-02-18T12:05:59;79.82;;;49.92;;
51286;SDS011;37364;46.974;18.916;2023-02-18T12:08:36;77.18;;;50.55;;
51286;SDS011;37364;46.974;18.916;2023-02-18T12:11:19;77.18;;;53.10;;
51286;SDS011;37364;46.974;18.916;2023-02-18T12:14:01;76.93;;;51.03;;
51286;SDS011;37364;46.974;18.916;2023-02-18T12:16:34;82.22;;;55.97;;
51286;SDS011;37364;46.974;18.916;2023-02-18T12:19:18;78.43;;;48.63;;
51286;SDS011;37364;46.974;18.916;2023-02-18T12:22:12;83.00;;;54.03;;
51286;SDS011;37364;46.974;18.916;2023-02-18T12:24:54;76.18;;;51.38;;
51286;SDS011;37364;46.974;18.916;2023-02-18T12:27:40;84.53;;;52.30;;
51286;SDS011;37364;46.974;18.916;2023-02-18T12:33:28;72.07;;;46.03;;
51286;SDS011;37364;46.974;18.916;2023-02-18T12:36:09;78.93;;;50.28;;
51286;SDS011;37364;46.974;18.916;2023-02-18T12:38:57;69.22;;;44.17;;
51286;SDS011;37364;46.974;18.916;2023-02-18T12:41:46;71.60;;;46.67;;
51286;SDS011;37364;46.974;18.916;2023-02-18T12:44:33;70.88;;;46.42;;
51286;SDS011;37364;46.974;18.916;2023-02-18T12:50:08;72.15;;;44.72;;
51286;SDS011;37364;46.974;18.916;2023-02-18T12:53:15;68.13;;;44.25;;
51286;SDS011;37364;46.974;18.916;2023-02-18T12:56:05;73.53;;;45.38;;
51286;SDS011;37364;46.974;18.916;2023-02-18T12:58:54;71.97;;;44.63;;
51286;SDS011;37364;46.974;18.916;2023-02-18T13:01:43;76.78;;;48.28;;
51286;SDS011;37364;46.974;18.916;2023-02-18T13:04:23;77.05;;;49.67;;
51286;SDS011;37364;46.974;18.916;2023-02-18T13:10:23;82.43;;;51.80;;
51286;SDS011;37364;46.974;18.916;2023-02-18T13:13:18;82.10;;;50.70;;
51286;SDS011;37364;46.974;18.916;2023-02-18T13:15:52;89.65;;;55.08;;
51286;SDS011;37364;46.974;18.916;2023-02-18T13:18:27;93.97;;;62.15;;
51286;SDS011;37364;46.974;18.916;2023-02-18T13:21:02;94.10;;;61.00;;
51286;SDS011;37364;46.974;18.916;2023-02-18T13:23:34;96.70;;;61.20;;
51286;SDS011;37364;46.974;18.916;2023-02-18T13:26:11;118.93;;;72.82;;
51286;SDS011;37364;46.974;18.916;2023-02-18T13:28:48;101.05;;;63.97;;
51286;SDS011;37364;46.974;18.916;2023-02-18T13:31:32;93.45;;;59.90;;
51286;SDS011;37364;46.974;18.916;2023-02-18T13:34:16;98.32;;;61.92;;
51286;SDS011;37364;46.974;18.916;2023-02-18T13:36:55;93.82;;;61.75;;
51286;SDS011;37364;46.974;18.916;2023-02-18T13:39:35;92.72;;;59.70;;
51286;SDS011;37364;46.974;18.916;2023-02-18T13:42:18;92.18;;;58.45;;
51286;SDS011;37364;46.974;18.916;2023-02-18T13:45:21;92.88;;;60.92;;
51286;SDS011;37364;46.974;18.916;2023-02-18T13:47:58;107.50;;;68.80;;
51286;SDS011;37364;46.974;18.916;2023-02-18T13:50:31;96.18;;;60.80;;
51286;SDS011;37364;46.974;18.916;2023-02-18T13:53:13;111.38;;;70.72;;
51286;SDS011;37364;46.974;18.916;2023-02-18T13:55:51;103.05;;;62.42;;
51286;SDS011;37364;46.974;18.916;2023-02-18T13:58:29;105.68;;;66.97;;
51286;SDS011;37364;46.974;18.916;2023-02-18T14:01:11;110.22;;;65.82;;
51286;SDS011;37364;46.974;18.916;2023-02-18T14:03:55;112.50;;;61.38;;
51286;SDS011;37364;46.974;18.916;2023-02-18T14:06:30;117.15;;;71.93;;
51286;SDS011;37364;46.974;18.916;2023-02-18T14:18:19;103.72;;;66.45;;
51286;SDS011;37364;46.974;18.916;2023-02-18T14:21:01;104.20;;;66.00;;
51286;SDS011;37364;46.974;18.916;2023-02-18T14:23:55;110.43;;;69.70;;
51286;SDS011;37364;46.974;18.916;2023-02-18T14:26:28;167.25;;;92.30;;
51286;SDS011;37364;46.974;18.916;2023-02-18T14:29:05;113.88;;;67.93;;
51286;SDS011;37364;46.974;18.916;2023-02-18T14:31:44;121.25;;;75.30;;
51286;SDS011;37364;46.974;18.916;2023-02-18T14:37:29;144.20;;;88.60;;
51286;SDS011;37364;46.974;18.916;2023-02-18T14:40:17;139.25;;;86.47;;
51286;SDS011;37364;46.974;18.916;2023-02-18T14:42:59;127.07;;;76.03;;
51286;SDS011;37364;46.974;18.916;2023-02-18T14:45:39;141.68;;;79.15;;
51286;SDS011;37364;46.974;18.916;2023-02-18T14:48:34;125.80;;;73.72;;
51286;SDS011;37364;46.974;18.916;2023-02-18T14:51:18;128.93;;;75.57;;
51286;SDS011;37364;46.974;18.916;2023-02-18T14:53:53;179.07;;;99.78;;
51286;SDS011;37364;46.974;18.916;2023-02-18T14:56:24;236.63;;;124.72;;
51286;SDS011;37364;46.974;18.916;2023-02-18T14:58:56;162.43;;;93.95;;
51286;SDS011;37364;46.974;18.916;2023-02-18T15:01:29;134.80;;;79.95;;
51286;SDS011;37364;46.974;18.916;2023-02-18T15:04:01;133.98;;;81.82;;
51286;SDS011;37364;46.974;18.916;2023-02-18T15:06:36;116.38;;;74.80;;
51286;SDS011;37364;46.974;18.916;2023-02-18T15:09:11;132.30;;;78.85;;
51286;SDS011;37364;46.974;18.916;2023-02-18T15:11:44;128.48;;;79.28;;
51286;SDS011;37364;46.974;18.916;2023-02-18T15:14:20;124.63;;;76.40;;
51286;SDS011;37364;46.974;18.916;2023-02-18T15:16:54;124.22;;;75.25;;
51286;SDS011;37364;46.974;18.916;2023-02-18T15:19:26;132.27;;;76.70;;
51286;SDS011;37364;46.974;18.916;2023-02-18T15:22:04;133.32;;;78.88;;
51286;SDS011;37364;46.974;18.916;2023-02-18T15:24:35;131.75;;;75.78;;
51286;SDS011;37364;46.974;18.916;2023-02-18T15:27:10;118.43;;;72.70;;
51286;SDS011;37364;46.974;18.916;2023-02-18T15:29:43;135.18;;;78.40;;
51286;SDS011;37364;46.974;18.916;2023-02-18T15:32:14;130.55;;;78.38;;
51286;SDS011;37364;46.974;18.916;2023-02-18T15:34:48;127.05;;;78.97;;
51286;SDS011;37364;46.974;18.916;2023-02-18T15:37:23;130.63;;;79.40;;
51286;SDS011;37364;46.974;18.916;2023-02-18T15:39:55;128.32;;;79.30;;